sensor_id;sensor_type;location;lat;lon;timestamp;P1;P2;P0
69222;PMS7003;56514;51.816;-0.026;2023-06-19T00:00:24;25.75;23.25;17.00
69222;PMS7003;56514;51.816;-0.026;2023-06-19T00:03:09;34.75;33.50;21.75
69222;PMS7003;56514;51.816;-0.026;2023-06-19T00:05:53;38.75;37.75;23.75
69222;PMS7003;56514;51.816;-0.026;2023-06-19T00:08:38;40.25;38.75;24.50
69222;PMS7003;56514;51.816;-0.026;2023-06-19T00:11:25;44.25;40.25;26.00
69222;PMS7003;56514;51.816;-0.026;2023-06-19T00:14:10;43.00;40.25;25.25
69222;PMS7003;56514;51.816;-0.026;2023-06-19T00:16:54;43.33;40.33;25.00
69222;PMS7003;56514;51.816;-0.026;2023-06-19T00:19:39;40.50;39.00;25.25
69222;PMS7003;56514;51.816;-0.026;2023-06-19T00:22:24;40.50;38.50;24.50
69222;PMS7003;56514;51.816;-0.026;2023-06-19T00:25:09;48.00;43.50;26.75
69222;PMS7003;56514;51.816;-0.026;2023-06-19T00:27:54;53.67;47.33;29.33
69222;PMS7003;56514;51.816;-0.026;2023-06-19T00:30:39;49.33;44.00;28.33
69222;PMS7003;56514;51.816;-0.026;2023-06-19T00:33:24;55.00;45.33;27.33
69222;PMS7003;56514;51.816;-0.026;2023-06-19T00:36:12;55.33;46.33;27.33
69222;PMS7003;56514;51.816;-0.026;2023-06-19T00:38:57;49.67;43.33;27.00
69222;PMS7003;56514;51.816;-0.026;2023-06-19T00:41:42;49.67;44.33;27.00
69222;PMS7003;56514;51.816;-0.026;2023-06-19T00:44:27;43.00;40.25;25.50
69222;PMS7003;56514;51.816;-0.026;2023-06-19T00:47:11;45.67;41.00;26.33
69222;PMS7003;56514;51.816;-0.026;2023-06-19T00:49:56;49.25;44.25;27.25
69222;PMS7003;56514;51.816;-0.026;2023-06-19T00:52:40;49.50;44.75;25.75
69222;PMS7003;56514;51.816;-0.026;2023-06-19T00:55:26;41.75;40.25;26.00
69222;PMS7003;56514;51.816;-0.026;2023-06-19T00:58:12;51.67;44.00;29.00
69222;PMS7003;56514;51.816;-0.026;2023-06-19T01:00:57;45.75;41.50;25.25
69222;PMS7003;56514;51.816;-0.026;2023-06-19T01:03:42;48.00;43.50;27.75
69222;PMS7003;56514;51.816;-0.026;2023-06-19T01:06:27;42.50;39.50;24.25
69222;PMS7003;56514;51.816;-0.026;2023-06-19T01:09:14;44.50;40.50;25.25
69222;PMS7003;56514;51.816;-0.026;2023-06-19T01:12:09;42.75;40.00;25.25
69222;PMS7003;56514;51.816;-0.026;2023-06-19T01:14:58;54.67;47.33;28.00
69222;PMS7003;56514;51.816;-0.026;2023-06-19T01:17:43;47.67;43.33;27.00
69222;PMS7003;56514;51.816;-0.026;2023-06-19T01:20:30;38.50;38.00;25.25
69222;PMS7003;56514;51.816;-0.026;2023-06-19T01:23:15;39.25;38.50;25.25
69222;PMS7003;56514;51.816;-0.026;2023-06-19T01:26:00;46.75;43.00;26.00
69222;PMS7003;56514;51.816;-0.026;2023-06-19T01:28:44;56.67;46.67;28.33
69222;PMS7003;56514;51.816;-0.026;2023-06-19T01:34:33;49.33;42.33;28.00
69222;PMS7003;56514;51.816;-0.026;2023-06-19T01:37:18;40.00;38.00;25.00
69222;PMS7003;56514;51.816;-0.026;2023-06-19T01:40:03;39.00;38.00;26.00
69222;PMS7003;56514;51.816;-0.026;2023-06-19T01:42:52;42.33;39.67;27.67
69222;PMS7003;56514;51.816;-0.026;2023-06-19T01:45:37;42.25;40.00;25.00
69222;PMS7003;56514;51.816;-0.026;2023-06-19T01:48:22;47.25;42.25;27.25
69222;PMS7003;56514;51.816;-0.026;2023-06-19T01:51:07;32.25;32.25;21.25
69222;PMS7003;56514;51.816;-0.026;2023-06-19T01:53:52;45.50;42.00;25.50
69222;PMS7003;56514;51.816;-0.026;2023-06-19T01:56:36;37.75;37.50;24.00
69222;PMS7003;56514;51.816;-0.026;2023-06-19T01:59:21;40.50;38.25;26.25
69222;PMS7003;56514;51.816;-0.026;2023-06-19T02:02:06;47.25;42.75;25.00
69222;PMS7003;56514;51.816;-0.026;2023-06-19T02:04:52;42.75;40.00;25.25
69222;PMS7003;56514;51.816;-0.026;2023-06-19T02:07:37;40.75;38.25;25.75
69222;PMS7003;56514;51.816;-0.026;2023-06-19T02:10:21;39.25;38.75;24.50
69222;PMS7003;56514;51.816;-0.026;2023-06-19T02:13:06;42.75;38.75;24.50
69222;PMS7003;56514;51.816;-0.026;2023-06-19T02:15:51;40.00;38.00;22.00
69222;PMS7003;56514;51.816;-0.026;2023-06-19T02:18:36;31.00;31.00;20.50
69222;PMS7003;56514;51.816;-0.026;2023-06-19T02:21:20;35.00;35.00;24.25
69222;PMS7003;56514;51.816;-0.026;2023-06-19T02:24:05;32.75;32.75;23.25
69222;PMS7003;56514;51.816;-0.026;2023-06-19T02:26:53;32.75;32.75;20.00
69222;PMS7003;56514;51.816;-0.026;2023-06-19T02:29:38;36.25;35.25;23.75
69222;PMS7003;56514;51.816;-0.026;2023-06-19T02:32:22;35.50;32.00;19.50
69222;PMS7003;56514;51.816;-0.026;2023-06-19T02:35:08;34.25;32.75;19.25
69222;PMS7003;56514;51.816;-0.026;2023-06-19T02:37:53;31.75;31.00;21.00
69222;PMS7003;56514;51.816;-0.026;2023-06-19T02:40:38;39.75;36.75;22.25
69222;PMS7003;56514;51.816;-0.026;2023-06-19T02:43:22;34.25;34.25;22.50
69222;PMS7003;56514;51.816;-0.026;2023-06-19T02:46:07;39.50;38.75;24.00
69222;PMS7003;56514;51.816;-0.026;2023-06-19T02:48:52;36.75;35.25;22.25
69222;PMS7003;56514;51.816;-0.026;2023-06-19T02:51:36;31.25;29.75;20.25
69222;PMS7003;56514;51.816;-0.026;2023-06-19T02:54:21;26.00;26.00;18.00
69222;PMS7003;56514;51.816;-0.026;2023-06-19T02:57:06;27.75;27.75;18.00
69222;PMS7003;56514;51.816;-0.026;2023-06-19T02:59:50;31.75;31.75;19.75
69222;PMS7003;56514;51.816;-0.026;2023-06-19T03:02:35;35.00;33.75;23.00
69222;PMS7003;56514;51.816;-0.026;2023-06-19T03:05:19;24.25;24.25;15.00
69222;PMS7003;56514;51.816;-0.026;2023-06-19T03:08:04;30.25;30.00;18.00
69222;PMS7003;56514;51.816;-0.026;2023-06-19T03:10:52;27.75;27.75;18.75
69222;PMS7003;56514;51.816;-0.026;2023-06-19T03:13:47;23.25;23.25;15.25
69222;PMS7003;56514;51.816;-0.026;2023-06-19T03:16:32;26.75;26.00;17.75
69222;PMS7003;56514;51.816;-0.026;2023-06-19T03:19:16;23.00;23.00;15.25
69222;PMS7003;56514;51.816;-0.026;2023-06-19T03:22:01;27.00;27.00;17.25
69222;PMS7003;56514;51.816;-0.026;2023-06-19T03:24:46;24.25;24.25;17.75
69222;PMS7003;56514;51.816;-0.026;2023-06-19T03:27:31;28.50;28.50;17.50
69222;PMS7003;56514;51.816;-0.026;2023-06-19T03:30:16;30.75;30.75;21.50
69222;PMS7003;56514;51.816;-0.026;2023-06-19T03:33:02;21.00;21.00;15.00
69222;PMS7003;56514;51.816;-0.026;2023-06-19T03:35:47;29.75;29.75;19.25
69222;PMS7003;56514;51.816;-0.026;2023-06-19T03:38:31;32.75;32.00;20.00
69222;PMS7003;56514;51.816;-0.026;2023-06-19T03:41:16;25.00;25.00;17.00
69222;PMS7003;56514;51.816;-0.026;2023-06-19T03:44:01;22.50;22.50;15.00
69222;PMS7003;56514;51.816;-0.026;2023-06-19T03:46:45;25.75;25.50;15.50
69222;PMS7003;56514;51.816;-0.026;2023-06-19T03:49:31;24.25;23.00;17.75
69222;PMS7003;56514;51.816;-0.026;2023-06-19T03:52:16;16.75;16.75;13.75
69222;PMS7003;56514;51.816;-0.026;2023-06-19T03:55:00;24.25;24.00;14.50
69222;PMS7003;56514;51.816;-0.026;2023-06-19T03:57:45;21.50;21.50;14.25
69222;PMS7003;56514;51.816;-0.026;2023-06-19T04:00:29;22.50;22.50;14.75
69222;PMS7003;56514;51.816;-0.026;2023-06-19T04:03:14;24.00;24.00;15.00
69222;PMS7003;56514;51.816;-0.026;2023-06-19T04:05:59;21.75;20.75;13.75
69222;PMS7003;56514;51.816;-0.026;2023-06-19T04:08:44;20.75;20.75;14.50
69222;PMS7003;56514;51.816;-0.026;2023-06-19T04:11:28;26.75;26.75;15.50
69222;PMS7003;56514;51.816;-0.026;2023-06-19T04:14:13;18.00;18.00;14.00
69222;PMS7003;56514;51.816;-0.026;2023-06-19T04:16:57;13.75;13.75;10.50
69222;PMS7003;56514;51.816;-0.026;2023-06-19T04:19:42;20.00;20.00;13.75
69222;PMS7003;56514;51.816;-0.026;2023-06-19T04:22:27;19.00;18.75;12.00
69222;PMS7003;56514;51.816;-0.026;2023-06-19T04:25:11;14.00;14.00;9.50
69222;PMS7003;56514;51.816;-0.026;2023-06-19T04:27:55;14.00;14.00;9.25
69222;PMS7003;56514;51.816;-0.026;2023-06-19T04:30:40;21.25;20.25;12.75
69222;PMS7003;56514;51.816;-0.026;2023-06-19T04:33:25;20.75;20.75;13.50
69222;PMS7003;56514;51.816;-0.026;2023-06-19T04:36:10;18.00;18.00;14.00
69222;PMS7003;56514;51.816;-0.026;2023-06-19T04:38:55;18.00;18.00;13.00
69222;PMS7003;56514;51.816;-0.026;2023-06-19T04:41:39;20.75;20.75;13.00
69222;PMS7003;56514;51.816;-0.026;2023-06-19T04:44:25;17.75;17.75;10.00
69222;PMS7003;56514;51.816;-0.026;2023-06-19T04:47:09;15.50;15.50;9.75
69222;PMS7003;56514;51.816;-0.026;2023-06-19T04:49:54;18.00;18.00;11.00
69222;PMS7003;56514;51.816;-0.026;2023-06-19T04:52:38;14.00;13.50;9.00
69222;PMS7003;56514;51.816;-0.026;2023-06-19T04:55:26;16.50;16.50;11.25
69222;PMS7003;56514;51.816;-0.026;2023-06-19T04:58:10;13.75;13.75;9.00
69222;PMS7003;56514;51.816;-0.026;2023-06-19T05:00:55;15.25;15.25;10.50
69222;PMS7003;56514;51.816;-0.026;2023-06-19T05:03:40;12.33;12.33;9.00
69222;PMS7003;56514;51.816;-0.026;2023-06-19T05:06:25;12.75;12.75;9.25
69222;PMS7003;56514;51.816;-0.026;2023-06-19T05:09:10;16.00;16.00;11.50
69222;PMS7003;56514;51.816;-0.026;2023-06-19T05:11:56;15.25;15.25;10.75
69222;PMS7003;56514;51.816;-0.026;2023-06-19T05:14:41;15.00;15.00;10.00
69222;PMS7003;56514;51.816;-0.026;2023-06-19T05:17:25;16.25;15.00;9.75
69222;PMS7003;56514;51.816;-0.026;2023-06-19T05:20:10;13.50;13.50;10.00
69222;PMS7003;56514;51.816;-0.026;2023-06-19T05:22:55;11.75;11.75;8.50
69222;PMS7003;56514;51.816;-0.026;2023-06-19T05:25:40;10.25;10.25;8.00
69222;PMS7003;56514;51.816;-0.026;2023-06-19T05:28:25;11.25;11.25;6.50
69222;PMS7003;56514;51.816;-0.026;2023-06-19T05:31:09;12.50;11.50;10.00
69222;PMS7003;56514;51.816;-0.026;2023-06-19T05:33:54;10.50;10.50;8.50
69222;PMS7003;56514;51.816;-0.026;2023-06-19T05:36:38;9.75;9.75;6.25
69222;PMS7003;56514;51.816;-0.026;2023-06-19T05:39:23;15.00;15.00;8.75
69222;PMS7003;56514;51.816;-0.026;2023-06-19T05:42:07;12.00;12.00;7.00
69222;PMS7003;56514;51.816;-0.026;2023-06-19T05:44:52;12.50;12.50;8.75
69222;PMS7003;56514;51.816;-0.026;2023-06-19T05:47:37;11.00;11.00;6.00
69222;PMS7003;56514;51.816;-0.026;2023-06-19T05:50:21;12.00;12.00;10.00
69222;PMS7003;56514;51.816;-0.026;2023-06-19T05:53:06;13.50;13.50;7.50
69222;PMS7003;56514;51.816;-0.026;2023-06-19T05:55:51;10.75;10.75;7.00
69222;PMS7003;56514;51.816;-0.026;2023-06-19T05:58:35;13.50;13.50;9.25
69222;PMS7003;56514;51.816;-0.026;2023-06-19T06:01:20;11.00;10.75;9.75
69222;PMS7003;56514;51.816;-0.026;2023-06-19T06:04:05;11.00;11.00;7.00
69222;PMS7003;56514;51.816;-0.026;2023-06-19T06:06:51;10.75;10.00;7.25
69222;PMS7003;56514;51.816;-0.026;2023-06-19T06:09:36;9.75;9.75;8.50
69222;PMS7003;56514;51.816;-0.026;2023-06-19T06:12:20;13.50;13.50;9.00
69222;PMS7003;56514;51.816;-0.026;2023-06-19T06:15:05;11.25;11.25;7.00
69222;PMS7003;56514;51.816;-0.026;2023-06-19T06:17:53;11.00;11.00;7.75
69222;PMS7003;56514;51.816;-0.026;2023-06-19T06:20:38;9.50;9.50;6.50
69222;PMS7003;56514;51.816;-0.026;2023-06-19T06:23:22;10.25;10.25;7.00
69222;PMS7003;56514;51.816;-0.026;2023-06-19T06:26:07;12.00;12.00;8.00
69222;PMS7003;56514;51.816;-0.026;2023-06-19T06:28:52;12.25;11.75;8.75
69222;PMS7003;56514;51.816;-0.026;2023-06-19T06:31:37;15.50;15.50;8.50
69222;PMS7003;56514;51.816;-0.026;2023-06-19T06:34:22;14.25;14.25;9.00
69222;PMS7003;56514;51.816;-0.026;2023-06-19T06:37:07;12.25;12.25;8.25
69222;PMS7003;56514;51.816;-0.026;2023-06-19T06:39:52;13.50;13.50;9.50
69222;PMS7003;56514;51.816;-0.026;2023-06-19T06:42:37;15.00;13.50;7.00
69222;PMS7003;56514;51.816;-0.026;2023-06-19T06:45:22;11.00;11.00;8.00
69222;PMS7003;56514;51.816;-0.026;2023-06-19T06:48:07;9.25;9.25;8.00
69222;PMS7003;56514;51.816;-0.026;2023-06-19T06:50:52;11.00;11.00;7.25
69222;PMS7003;56514;51.816;-0.026;2023-06-19T06:53:43;13.00;13.00;10.50
69222;PMS7003;56514;51.816;-0.026;2023-06-19T06:56:27;16.25;14.50;8.50
69222;PMS7003;56514;51.816;-0.026;2023-06-19T06:59:12;13.25;13.25;9.00
69222;PMS7003;56514;51.816;-0.026;2023-06-19T07:01:56;12.75;12.75;10.00
69222;PMS7003;56514;51.816;-0.026;2023-06-19T07:04:41;16.50;15.00;9.50
69222;PMS7003;56514;51.816;-0.026;2023-06-19T07:07:25;15.25;15.25;9.00
69222;PMS7003;56514;51.816;-0.026;2023-06-19T07:10:10;14.75;14.75;9.00
69222;PMS7003;56514;51.816;-0.026;2023-06-19T07:12:54;12.00;12.00;8.00
69222;PMS7003;56514;51.816;-0.026;2023-06-19T07:15:39;11.75;11.75;9.00
69222;PMS7003;56514;51.816;-0.026;2023-06-19T07:18:23;12.50;12.00;8.00
69222;PMS7003;56514;51.816;-0.026;2023-06-19T07:21:09;12.50;12.50;8.00
69222;PMS7003;56514;51.816;-0.026;2023-06-19T07:23:55;10.50;10.50;8.25
69222;PMS7003;56514;51.816;-0.026;2023-06-19T07:26:41;11.50;11.50;8.50
69222;PMS7003;56514;51.816;-0.026;2023-06-19T07:29:25;11.75;11.75;7.00
69222;PMS7003;56514;51.816;-0.026;2023-06-19T07:32:11;13.00;12.25;8.50
69222;PMS7003;56514;51.816;-0.026;2023-06-19T07:34:55;10.00;10.00;8.50
69222;PMS7003;56514;51.816;-0.026;2023-06-19T07:37:40;10.50;10.50;8.25
69222;PMS7003;56514;51.816;-0.026;2023-06-19T07:40:24;9.00;9.00;7.25
69222;PMS7003;56514;51.816;-0.026;2023-06-19T07:43:09;12.75;12.75;8.50
69222;PMS7003;56514;51.816;-0.026;2023-06-19T07:45:53;14.00;13.00;8.50
69222;PMS7003;56514;51.816;-0.026;2023-06-19T07:48:38;12.50;12.50;9.00
69222;PMS7003;56514;51.816;-0.026;2023-06-19T07:51:22;9.00;9.00;7.00
69222;PMS7003;56514;51.816;-0.026;2023-06-19T07:54:07;9.25;9.25;8.25
69222;PMS7003;56514;51.816;-0.026;2023-06-19T07:56:52;12.50;12.50;8.50
69222;PMS7003;56514;51.816;-0.026;2023-06-19T07:59:38;8.50;8.50;6.75
69222;PMS7003;56514;51.816;-0.026;2023-06-19T08:02:23;11.50;11.50;8.00
69222;PMS7003;56514;51.816;-0.026;2023-06-19T08:05:08;9.00;9.00;6.50
69222;PMS7003;56514;51.816;-0.026;2023-06-19T08:07:53;8.75;8.75;6.00
69222;PMS7003;56514;51.816;-0.026;2023-06-19T08:10:37;7.25;7.25;6.75
69222;PMS7003;56514;51.816;-0.026;2023-06-19T08:13:22;10.00;10.00;7.00
69222;PMS7003;56514;51.816;-0.026;2023-06-19T08:16:07;9.00;8.00;6.00
69222;PMS7003;56514;51.816;-0.026;2023-06-19T08:18:58;6.75;6.75;5.50
69222;PMS7003;56514;51.816;-0.026;2023-06-19T08:21:43;7.50;7.50;6.50
69222;PMS7003;56514;51.816;-0.026;2023-06-19T08:24:28;8.50;8.50;7.00
69222;PMS7003;56514;51.816;-0.026;2023-06-19T08:27:13;7.75;6.75;5.75
69222;PMS7003;56514;51.816;-0.026;2023-06-19T08:29:57;8.00;8.00;5.75
69222;PMS7003;56514;51.816;-0.026;2023-06-19T08:32:45;8.50;8.50;6.75
69222;PMS7003;56514;51.816;-0.026;2023-06-19T08:35:30;8.25;8.25;4.75
69222;PMS7003;56514;51.816;-0.026;2023-06-19T08:38:33;8.25;8.25;5.25
69222;PMS7003;56514;51.816;-0.026;2023-06-19T08:41:17;6.75;6.75;4.50
69222;PMS7003;56514;51.816;-0.026;2023-06-19T08:44:04;7.00;5.25;4.00
69222;PMS7003;56514;51.816;-0.026;2023-06-19T08:46:52;6.50;6.50;4.25
69222;PMS7003;56514;51.816;-0.026;2023-06-19T08:49:37;4.00;4.00;4.00
69222;PMS7003;56514;51.816;-0.026;2023-06-19T08:52:21;5.25;5.25;4.00
69222;PMS7003;56514;51.816;-0.026;2023-06-19T08:55:06;6.00;6.00;5.00
69222;PMS7003;56514;51.816;-0.026;2023-06-19T08:57:52;6.25;6.25;4.75
69222;PMS7003;56514;51.816;-0.026;2023-06-19T09:00:37;8.50;8.50;6.25
69222;PMS7003;56514;51.816;-0.026;2023-06-19T09:03:21;7.00;7.00;4.00
69222;PMS7003;56514;51.816;-0.026;2023-06-19T09:06:06;6.00;6.00;5.00
69222;PMS7003;56514;51.816;-0.026;2023-06-19T09:08:59;8.00;8.00;7.00
69222;PMS7003;56514;51.816;-0.026;2023-06-19T09:11:54;7.50;7.50;5.00
69222;PMS7003;56514;51.816;-0.026;2023-06-19T09:14:39;8.00;8.00;5.00
69222;PMS7003;56514;51.816;-0.026;2023-06-19T09:17:24;9.00;9.00;6.50
69222;PMS7003;56514;51.816;-0.026;2023-06-19T09:20:10;8.25;8.25;6.50
69222;PMS7003;56514;51.816;-0.026;2023-06-19T09:22:56;8.00;8.00;4.00
69222;PMS7003;56514;51.816;-0.026;2023-06-19T09:25:48;8.50;8.50;6.00
69222;PMS7003;56514;51.816;-0.026;2023-06-19T09:28:33;6.50;6.50;5.00
69222;PMS7003;56514;51.816;-0.026;2023-06-19T09:31:17;7.00;7.00;6.00
69222;PMS7003;56514;51.816;-0.026;2023-06-19T09:34:01;9.00;9.00;7.50
69222;PMS7003;56514;51.816;-0.026;2023-06-19T09:36:46;11.50;11.50;8.50
69222;PMS7003;56514;51.816;-0.026;2023-06-19T09:39:31;9.00;9.00;6.00
69222;PMS7003;56514;51.816;-0.026;2023-06-19T09:42:16;9.00;8.50;6.00
69222;PMS7003;56514;51.816;-0.026;2023-06-19T09:45:02;6.00;6.00;5.50
69222;PMS7003;56514;51.816;-0.026;2023-06-19T09:47:53;7.50;7.50;5.50
69222;PMS7003;56514;51.816;-0.026;2023-06-19T09:50:41;9.25;9.25;6.50
69222;PMS7003;56514;51.816;-0.026;2023-06-19T09:53:29;9.75;9.75;8.00
69222;PMS7003;56514;51.816;-0.026;2023-06-19T09:56:15;7.00;7.00;6.00
69222;PMS7003;56514;51.816;-0.026;2023-06-19T09:59:00;7.75;7.50;5.25
69222;PMS7003;56514;51.816;-0.026;2023-06-19T10:01:45;6.25;6.25;5.00
69222;PMS7003;56514;51.816;-0.026;2023-06-19T10:04:30;6.25;6.25;4.75
69222;PMS7003;56514;51.816;-0.026;2023-06-19T10:07:18;9.00;9.00;7.25
69222;PMS7003;56514;51.816;-0.026;2023-06-19T10:12:53;5.00;5.00;4.00
69222;PMS7003;56514;51.816;-0.026;2023-06-19T10:15:40;6.50;6.50;5.00
69222;PMS7003;56514;51.816;-0.026;2023-06-19T10:18:33;9.25;9.25;5.25
69222;PMS7003;56514;51.816;-0.026;2023-06-19T10:21:28;6.00;6.00;5.00
69222;PMS7003;56514;51.816;-0.026;2023-06-19T10:24:16;5.50;5.50;4.50
69222;PMS7003;56514;51.816;-0.026;2023-06-19T10:27:03;6.00;6.00;5.00
69222;PMS7003;56514;51.816;-0.026;2023-06-19T10:29:52;8.00;8.00;5.75
69222;PMS7003;56514;51.816;-0.026;2023-06-19T10:32:43;7.25;7.25;5.75
69222;PMS7003;56514;51.816;-0.026;2023-06-19T10:35:28;7.25;7.25;5.25
69222;PMS7003;56514;51.816;-0.026;2023-06-19T10:38:16;6.00;6.00;4.25
69222;PMS7003;56514;51.816;-0.026;2023-06-19T10:41:00;6.00;6.00;4.00
69222;PMS7003;56514;51.816;-0.026;2023-06-19T10:46:59;6.00;6.00;5.00
69222;PMS7003;56514;51.816;-0.026;2023-06-19T10:49:44;2.75;2.75;2.00
69222;PMS7003;56514;51.816;-0.026;2023-06-19T10:52:29;6.25;6.25;6.00
69222;PMS7003;56514;51.816;-0.026;2023-06-19T10:55:14;4.25;4.25;3.00
69222;PMS7003;56514;51.816;-0.026;2023-06-19T10:57:59;5.50;4.25;3.75
69222;PMS7003;56514;51.816;-0.026;2023-06-19T11:00:43;4.00;4.00;3.50
69222;PMS7003;56514;51.816;-0.026;2023-06-19T11:03:28;4.75;4.75;4.00
69222;PMS7003;56514;51.816;-0.026;2023-06-19T11:06:18;5.00;5.00;5.00
69222;PMS7003;56514;51.816;-0.026;2023-06-19T11:09:04;3.75;3.75;3.75
69222;PMS7003;56514;51.816;-0.026;2023-06-19T11:11:52;4.00;4.00;4.00
69222;PMS7003;56514;51.816;-0.026;2023-06-19T11:14:37;4.00;4.00;3.75
69222;PMS7003;56514;51.816;-0.026;2023-06-19T11:17:24;3.00;3.00;3.00
69222;PMS7003;56514;51.816;-0.026;2023-06-19T11:20:09;5.00;5.00;4.00
69222;PMS7003;56514;51.816;-0.026;2023-06-19T11:22:58;3.50;3.50;3.25
69222;PMS7003;56514;51.816;-0.026;2023-06-19T11:25:43;5.00;5.00;4.75
69222;PMS7003;56514;51.816;-0.026;2023-06-19T11:28:27;4.00;4.00;3.00
69222;PMS7003;56514;51.816;-0.026;2023-06-19T11:31:13;4.25;4.25;3.25
69222;PMS7003;56514;51.816;-0.026;2023-06-19T11:34:01;3.75;3.75;3.00
69222;PMS7003;56514;51.816;-0.026;2023-06-19T11:36:46;4.25;4.25;3.00
69222;PMS7003;56514;51.816;-0.026;2023-06-19T11:39:30;5.00;5.00;3.00
69222;PMS7003;56514;51.816;-0.026;2023-06-19T11:42:16;4.25;4.25;3.50
69222;PMS7003;56514;51.816;-0.026;2023-06-19T11:45:02;4.00;4.00;4.00
69222;PMS7003;56514;51.816;-0.026;2023-06-19T11:47:53;4.00;4.00;3.25
69222;PMS7003;56514;51.816;-0.026;2023-06-19T11:50:38;5.25;5.25;4.00
69222;PMS7003;56514;51.816;-0.026;2023-06-19T11:53:23;5.00;5.00;4.00
69222;PMS7003;56514;51.816;-0.026;2023-06-19T11:56:08;3.50;3.50;3.00
69222;PMS7003;56514;51.816;-0.026;2023-06-19T11:58:53;5.25;5.25;3.75
69222;PMS7003;56514;51.816;-0.026;2023-06-19T12:01:38;4.00;4.00;3.00
69222;PMS7003;56514;51.816;-0.026;2023-06-19T12:04:22;4.00;4.00;4.00
69222;PMS7003;56514;51.816;-0.026;2023-06-19T12:07:07;4.00;4.00;4.00
69222;PMS7003;56514;51.816;-0.026;2023-06-19T12:09:52;3.75;3.75;3.50
69222;PMS7003;56514;51.816;-0.026;2023-06-19T12:12:36;4.75;4.00;3.50
69222;PMS7003;56514;51.816;-0.026;2023-06-19T12:15:22;5.25;5.25;4.00
69222;PMS7003;56514;51.816;-0.026;2023-06-19T12:18:07;4.00;4.00;3.00
69222;PMS7003;56514;51.816;-0.026;2023-06-19T12:20:52;3.25;3.25;3.00
69222;PMS7003;56514;51.816;-0.026;2023-06-19T12:23:37;5.00;5.00;4.75
69222;PMS7003;56514;51.816;-0.026;2023-06-19T12:26:21;4.50;4.50;4.00
69222;PMS7003;56514;51.816;-0.026;2023-06-19T12:29:09;5.00;5.00;4.50
69222;PMS7003;56514;51.816;-0.026;2023-06-19T12:31:59;4.75;4.75;4.00
69222;PMS7003;56514;51.816;-0.026;2023-06-19T12:34:44;3.75;3.75;3.00
69222;PMS7003;56514;51.816;-0.026;2023-06-19T12:37:30;4.75;4.75;4.75
69222;PMS7003;56514;51.816;-0.026;2023-06-19T12:40:16;6.00;6.00;5.00
69222;PMS7003;56514;51.816;-0.026;2023-06-19T12:43:01;4.25;4.25;3.75
69222;PMS7003;56514;51.816;-0.026;2023-06-19T12:45:45;3.75;3.75;3.25
69222;PMS7003;56514;51.816;-0.026;2023-06-19T12:48:31;4.00;4.00;3.75
69222;PMS7003;56514;51.816;-0.026;2023-06-19T12:51:19;3.25;3.25;3.00
69222;PMS7003;56514;51.816;-0.026;2023-06-19T12:54:03;3.25;3.25;3.00
69222;PMS7003;56514;51.816;-0.026;2023-06-19T12:56:48;4.00;4.00;3.50
69222;PMS7003;56514;51.816;-0.026;2023-06-19T12:59:33;4.25;4.25;3.25
69222;PMS7003;56514;51.816;-0.026;2023-06-19T13:02:17;5.75;4.25;4.00
69222;PMS7003;56514;51.816;-0.026;2023-06-19T13:05:01;4.00;4.00;4.00
69222;PMS7003;56514;51.816;-0.026;2023-06-19T13:07:46;4.00;4.00;4.00
69222;PMS7003;56514;51.816;-0.026;2023-06-19T13:10:30;4.00;4.00;3.75
69222;PMS7003;56514;51.816;-0.026;2023-06-19T13:13:15;4.50;4.50;4.00
69222;PMS7003;56514;51.816;-0.026;2023-06-19T13:16:00;4.00;4.00;3.00
69222;PMS7003;56514;51.816;-0.026;2023-06-19T13:18:44;2.00;2.00;2.00
69222;PMS7003;56514;51.816;-0.026;2023-06-19T13:21:29;3.25;3.25;3.00
69222;PMS7003;56514;51.816;-0.026;2023-06-19T13:24:14;4.00;4.00;4.00
69222;PMS7003;56514;51.816;-0.026;2023-06-19T13:26:59;4.50;4.50;4.00
69222;PMS7003;56514;51.816;-0.026;2023-06-19T13:29:43;5.00;5.00;4.75
69222;PMS7003;56514;51.816;-0.026;2023-06-19T13:32:28;5.00;5.00;4.75
69222;PMS7003;56514;51.816;-0.026;2023-06-19T13:35:12;3.00;3.00;3.00
69222;PMS7003;56514;51.816;-0.026;2023-06-19T13:37:57;4.50;4.50;4.25
69222;PMS7003;56514;51.816;-0.026;2023-06-19T13:40:42;3.00;3.00;2.75
69222;PMS7003;56514;51.816;-0.026;2023-06-19T13:43:26;3.00;3.00;3.00
69222;PMS7003;56514;51.816;-0.026;2023-06-19T13:46:11;2.00;2.00;2.00
69222;PMS7003;56514;51.816;-0.026;2023-06-19T13:48:56;2.00;2.00;2.00
69222;PMS7003;56514;51.816;-0.026;2023-06-19T13:51:40;2.75;2.75;2.25
69222;PMS7003;56514;51.816;-0.026;2023-06-19T13:54:28;3.75;3.75;2.75
69222;PMS7003;56514;51.816;-0.026;2023-06-19T13:57:13;2.75;2.75;2.25
69222;PMS7003;56514;51.816;-0.026;2023-06-19T13:59:58;2.75;2.75;2.50
69222;PMS7003;56514;51.816;-0.026;2023-06-19T14:02:43;2.25;2.25;2.00
69222;PMS7003;56514;51.816;-0.026;2023-06-19T14:05:27;3.00;3.00;3.00
69222;PMS7003;56514;51.816;-0.026;2023-06-19T14:08:12;3.00;3.00;3.00
69222;PMS7003;56514;51.816;-0.026;2023-06-19T14:10:56;3.00;3.00;2.75
69222;PMS7003;56514;51.816;-0.026;2023-06-19T14:13:41;4.50;4.50;4.25
69222;PMS7003;56514;51.816;-0.026;2023-06-19T14:16:25;2.25;2.25;2.00
69222;PMS7003;56514;51.816;-0.026;2023-06-19T14:19:10;3.25;3.25;2.75
69222;PMS7003;56514;51.816;-0.026;2023-06-19T14:21:55;4.00;4.00;3.50
69222;PMS7003;56514;51.816;-0.026;2023-06-19T14:24:39;4.00;4.00;3.50
69222;PMS7003;56514;51.816;-0.026;2023-06-19T14:27:24;4.00;4.00;3.75
69222;PMS7003;56514;51.816;-0.026;2023-06-19T14:30:09;2.75;2.75;2.00
69222;PMS7003;56514;51.816;-0.026;2023-06-19T14:32:53;2.00;2.00;2.00
69222;PMS7003;56514;51.816;-0.026;2023-06-19T14:35:38;2.00;2.00;2.00
69222;PMS7003;56514;51.816;-0.026;2023-06-19T14:38:22;2.00;2.00;2.00
69222;PMS7003;56514;51.816;-0.026;2023-06-19T14:41:09;2.00;2.00;2.00
69222;PMS7003;56514;51.816;-0.026;2023-06-19T14:43:53;2.00;2.00;2.00
69222;PMS7003;56514;51.816;-0.026;2023-06-19T14:46:38;2.00;2.00;2.00
69222;PMS7003;56514;51.816;-0.026;2023-06-19T14:49:23;3.00;3.00;2.75
69222;PMS7003;56514;51.816;-0.026;2023-06-19T14:52:08;3.50;3.50;3.25
69222;PMS7003;56514;51.816;-0.026;2023-06-19T14:54:52;2.75;2.75;2.00
69222;PMS7003;56514;51.816;-0.026;2023-06-19T14:57:37;1.75;1.75;1.75
69222;PMS7003;56514;51.816;-0.026;2023-06-19T15:00:22;4.00;4.00;3.00
69222;PMS7003;56514;51.816;-0.026;2023-06-19T15:03:07;2.00;2.00;1.75
69222;PMS7003;56514;51.816;-0.026;2023-06-19T15:05:53;2.00;2.00;2.00
69222;PMS7003;56514;51.816;-0.026;2023-06-19T15:08:38;1.25;1.25;1.25
69222;PMS7003;56514;51.816;-0.026;2023-06-19T15:11:23;0.00;0.00;0.00
69222;PMS7003;56514;51.816;-0.026;2023-06-19T15:14:07;2.50;2.50;2.00
69222;PMS7003;56514;51.816;-0.026;2023-06-19T15:16:53;3.00;3.00;2.75
69222;PMS7003;56514;51.816;-0.026;2023-06-19T15:19:38;2.00;2.00;2.00
69222;PMS7003;56514;51.816;-0.026;2023-06-19T15:22:22;2.00;2.00;1.50
69222;PMS7003;56514;51.816;-0.026;2023-06-19T15:25:07;2.25;2.25;2.00
69222;PMS7003;56514;51.816;-0.026;2023-06-19T15:27:52;2.00;2.00;1.25
69222;PMS7003;56514;51.816;-0.026;2023-06-19T15:30:37;3.00;3.00;2.50
69222;PMS7003;56514;51.816;-0.026;2023-06-19T15:33:21;1.25;1.25;1.25
69222;PMS7003;56514;51.816;-0.026;2023-06-19T15:36:06;2.00;2.00;2.00
69222;PMS7003;56514;51.816;-0.026;2023-06-19T15:38:54;1.75;1.75;1.00
69222;PMS7003;56514;51.816;-0.026;2023-06-19T15:41:39;1.75;1.75;1.75
69222;PMS7003;56514;51.816;-0.026;2023-06-19T15:44:23;2.00;2.00;1.75